Thunderstorms From: 25-05-2018 05:05 Until: 26-05-2018 05:00 warning for: Thunderstorms Level: Yellow info button

Although rather usual in this region, locally or potentially dangerous phenomena are expected. (such as local winds, summer thunderstorms, rising streams or high waves) Be aware and pay attention to the latest weather updates, especially if you carry out activities exposed to weather or close to a stream or shoreline. 


Meteo18 Weather Cam more information Meteo18 Weather Cam


warning for Thunderstorms more information blitzortung!


Rain radar more information rain snow radar


Visit our other weather sites:

Template documentation
and downloads

And another site



Weather Underground History page Text

Daily Summary for November 6, 2017 Units:  Metric    English   Both
« Previous Day
Next Day »
Daily Weekly Monthly Yearly Custom
  High: Low: Average:
Temperature: -17.8 °C -16.1 °C -14.6 °C
Dew Point: -17.8 °C -17.2 °C -16.2 °C
Humidity: Humidity % 63 % 81 %
Wind Speed: 0 km/h 0 km/h 12.9 km/h
Wind Gust: 0 km/h - -
Wind:- - SSW
Pressure: 0 hPa 34577.8 hPa -
Precipitation: 7.62 mm    
Historical Graphs
 
 
Tabular Data for November 6, 2017
Time Temperature Dew Point Pressure Wind Wind Speed Wind Gust Humidity Rainfall Rate (Hourly)
-17.8 °C -17.8 °C 0 hPa Calm     Humidity % 0 mm
00:02 -15.5 °C -16.3 °C 34577.8 hPa WNW 2.6 km/h 15.6 km/h 90 % 0 mm
00:07 -15.5 °C -16.2 °C 34577.8 hPa NW 5.1 km/h 15.6 km/h 91 % 0 mm
00:12 -15.6 °C -16.3 °C 34591.4 hPa Calm   15.6 km/h 91 % 0 mm
00:17 -15.6 °C -16.3 °C 34591.4 hPa North 2.6 km/h 15.6 km/h 91 % 0 mm
00:22 -15.6 °C -16.3 °C 34591.4 hPa Calm   12.9 km/h 91 % 0 mm
00:32 -15.6 °C -16.3 °C 34591.4 hPa WNW 7.7 km/h 18.2 km/h 92 % 0 mm
00:37 -15.6 °C -16.3 °C 34591.4 hPa West 7.7 km/h 18.2 km/h 92 % 0 mm
00:42 -15.6 °C -16.3 °C 34591.4 hPa NW 7.7 km/h 18.2 km/h 92 % 0 mm
00:47 -15.6 °C -16.3 °C 34591.4 hPa WNW 15.6 km/h 23.3 km/h 92 % 0 mm
00:52 -15.6 °C -16.3 °C 34591.4 hPa WNW 10.3 km/h 23.3 km/h 92 % 0 mm
01:02 -15.7 °C -16.3 °C 34591.4 hPa WNW 2.6 km/h 23.3 km/h 92 % 0 mm
01:07 -15.7 °C -16.3 °C 34591.4 hPa NW 2.6 km/h 23.3 km/h 92 % 0 mm
01:12 -15.7 °C -16.4 °C 34591.4 hPa NW 2.6 km/h 18.2 km/h 92 % 0 mm
01:17 -15.7 °C -16.4 °C 34591.4 hPa NNW 5.1 km/h 15.6 km/h 92 % 0 mm
01:22 -15.8 °C -16.4 °C 34591.4 hPa WNW 5.1 km/h 12.9 km/h 92 % 0 mm
01:32 -15.8 °C -16.3 °C 34591.4 hPa Calm   15.6 km/h 93 % 0 mm
01:37 -15.7 °C -16.3 °C 34591.4 hPa WSW 7.7 km/h 15.6 km/h 93 % 0 mm
01:42 -15.8 °C -16.3 °C 34591.4 hPa North 2.6 km/h 15.6 km/h 93 % 0 mm
01:47 -15.8 °C -16.3 °C 34591.4 hPa NW 7.7 km/h 15.6 km/h 93 % 0 mm
01:52 -15.7 °C -16.3 °C 34591.4 hPa North 2.6 km/h 12.9 km/h 93 % 0 mm
01:57 -15.8 °C -16.3 °C 34591.4 hPa NNW 5.1 km/h 15.6 km/h 93 % 0 mm
02:02 -15.8 °C -16.3 °C 34601.5 hPa NW 2.6 km/h 15.6 km/h 93 % 0 mm
02:07 -15.8 °C -16.3 °C 34601.5 hPa NW 2.6 km/h 12.9 km/h 93 % 0 mm
02:12 -15.8 °C -16.3 °C 34601.5 hPa NW 5.1 km/h 12.9 km/h 93 % 0 mm
02:17 -15.8 °C -16.4 °C 34601.5 hPa NNW 2.6 km/h 12.9 km/h 93 % 0 mm
02:22 -15.9 °C -16.4 °C 34611.7 hPa North 5.1 km/h 12.9 km/h 93 % 0 mm
02:32 -15.8 °C -16.3 °C 34601.5 hPa NNW 5.1 km/h 18.2 km/h 94 % 0 mm
02:37 -15.8 °C -16.3 °C 34601.5 hPa NW 7.7 km/h 18.2 km/h 94 % 0 mm
02:42 -15.8 °C -16.3 °C 34601.5 hPa NW 2.6 km/h 18.2 km/h 94 % 0 mm
02:47 -15.8 °C -16.3 °C 34601.5 hPa WNW 7.7 km/h 15.6 km/h 94 % 0 mm
02:52 -15.8 °C -16.3 °C 34601.5 hPa NW 2.6 km/h 15.6 km/h 94 % 0 mm
02:57 -15.8 °C -16.3 °C 34611.7 hPa Calm   15.6 km/h 94 % 0 mm
03:02 -15.8 °C -16.3 °C 34611.7 hPa WNW 2.6 km/h 18.2 km/h 94 % 0 mm
03:07 -15.8 °C -16.3 °C 34611.7 hPa WNW 2.6 km/h 18.2 km/h 94 % 0 mm
03:12 -15.7 °C -16.2 °C 34601.5 hPa NW 2.6 km/h 12.9 km/h 94 % 0 mm
03:17 -15.7 °C -16.2 °C 34611.7 hPa WNW 7.7 km/h 15.6 km/h 94 % 0 mm
03:22 -15.7 °C -16.2 °C 34611.7 hPa NNW 12.9 km/h 15.6 km/h 94 % 0 mm
03:27 -15.7 °C -16.2 °C 34601.5 hPa WNW 5.1 km/h 15.6 km/h 94 % 0 mm
03:32 -15.7 °C -16.2 °C 34601.5 hPa Calm   15.6 km/h 94 % 0 mm
03:37 -15.8 °C -16.3 °C 34601.5 hPa NNE 2.6 km/h 15.6 km/h 94 % 0 mm
03:42 -15.8 °C -16.3 °C 34611.7 hPa West 5.1 km/h 12.9 km/h 94 % 0 mm
03:47 -16.1 °C -16.6 °C 34611.7 hPa WNW 7.7 km/h 12.9 km/h 94 % 0 mm
08:27 -15.9 °C -16.4 °C 34682.8 hPa WNW 2.6 km/h 12.9 km/h 94 % 0 mm
08:32 -15.8 °C -16.3 °C 34682.8 hPa NW 2.6 km/h 12.9 km/h 94 % 0 mm
08:42 -15.8 °C -16.3 °C 34682.8 hPa North 10.3 km/h 12.9 km/h 94 % 0 mm
08:47 -15.7 °C -16.2 °C 34682.8 hPa North 5.1 km/h 15.6 km/h 94 % 0 mm
08:52 -15.7 °C -16.2 °C 34682.8 hPa NW 2.6 km/h 18.2 km/h 93 % 0 mm
09:02 -15.6 °C -16.2 °C 34693 hPa WNW 10.3 km/h 20.8 km/h 93 % 0 mm
09:12 -15.4 °C -16 °C 34693 hPa North 5.1 km/h 20.8 km/h 93 % 7.62 mm
09:17 -15.3 °C -15.9 °C 34693 hPa North 10.3 km/h 20.8 km/h 93 % 7.62 mm
09:22 -15.3 °C -15.8 °C 34693 hPa NW 18.2 km/h 28.5 km/h 93 % 7.62 mm
09:27 -15.2 °C -15.8 °C 34693 hPa NW 20.8 km/h 28.5 km/h 93 % 7.62 mm
09:32 -15.1 °C -15.7 °C 34693 hPa NNW 12.9 km/h 28.5 km/h 93 % 7.62 mm
09:42 -14.9 °C -15.6 °C 34703.1 hPa NNW 7.7 km/h 25.9 km/h 92 % 7.62 mm
09:47 -14.8 °C -15.6 °C 34703.1 hPa NW 7.7 km/h 31.1 km/h 91 % 7.62 mm
09:52 -14.8 °C -15.6 °C 34703.1 hPa North 33.6 km/h 33.6 km/h 91 % 7.62 mm
09:57 -14.7 °C -15.6 °C 34703.1 hPa NNW 15.6 km/h 33.6 km/h 90 % 7.62 mm
10:02 -14.7 °C -15.6 °C 34703.1 hPa NNW 28.5 km/h 38.8 km/h 90 % 7.62 mm
10:12 -14.8 °C -15.6 °C 34703.1 hPa NNE 15.6 km/h 38.8 km/h 90 % 0 mm
10:17 -14.8 °C -15.6 °C 34703.1 hPa NW 12.9 km/h 38.8 km/h 90 % 0 mm
10:22 -14.7 °C -15.5 °C 34693 hPa NNW 25.9 km/h 38.8 km/h 90 % 0 mm
10:27 -14.7 °C -15.7 °C 34693 hPa NNE 23.3 km/h 38.8 km/h 89 % 0 mm
10:32 -14.7 °C -15.5 °C 34703.1 hPa NE 25.9 km/h 49.2 km/h 90 % 0 mm
10:37 -14.6 °C -15.6 °C 34693 hPa NNE 12.9 km/h 49.2 km/h 89 % 0 mm
10:42 -14.6 °C -15.6 °C 34693 hPa North 28.5 km/h 46.7 km/h 88 % 0 mm
10:47 -14.7 °C -15.6 °C 34703.1 hPa NNW 15.6 km/h 46.7 km/h 89 % 0 mm
10:52 -14.6 °C -15.6 °C 34703.1 hPa NNW 12.9 km/h 49.2 km/h 89 % 0 mm
10:57 -14.6 °C -15.6 °C 34703.1 hPa WNW 20.8 km/h 49.2 km/h 89 % 0 mm
11:02 -14.5 °C -15.4 °C 34703.1 hPa NNW 10.3 km/h 49.2 km/h 89 % 0 mm
11:07 -14.4 °C -15.3 °C 34703.1 hPa NNW 18.2 km/h 49.2 km/h 89 % 0 mm
11:12 -14.3 °C -15.3 °C 34703.1 hPa NNE 28.5 km/h 41.4 km/h 88 % 0 mm
11:17 -14.2 °C -15.3 °C 34703.1 hPa North 25.9 km/h 41.4 km/h 87 % 0 mm
11:22 -14.2 °C -15.4 °C 34703.1 hPa NE 36.2 km/h 41.4 km/h 86 % 0 mm
11:27 -14.1 °C -15.2 °C 34703.1 hPa NE 36.2 km/h 44.1 km/h 87 % 0 mm
11:32 -13.9 °C -15.2 °C 34703.1 hPa NNE 41.4 km/h 51.8 km/h 86 % 0 mm
11:37 -13.8 °C -15.2 °C 34703.1 hPa NE 20.8 km/h 51.8 km/h 85 % 0 mm
11:42 -13.8 °C -15.1 °C 34703.1 hPa NNE 23.3 km/h 51.8 km/h 85 % 0 mm
11:47 -13.8 °C -15.2 °C 34703.1 hPa NNW 33.6 km/h 49.2 km/h 84 % 0 mm
11:52 -13.8 °C -15.1 °C 34703.1 hPa ENE 15.6 km/h 49.2 km/h 85 % 0 mm
11:57 -13.7 °C -15.1 °C 34703.1 hPa NNE 36.2 km/h 49.2 km/h 84 % 0 mm
12:02 -13.7 °C -15.1 °C 34703.1 hPa North 23.3 km/h 46.7 km/h 84 % 0 mm
12:07 -13.7 °C -15.2 °C 34703.1 hPa NE 12.9 km/h 41.4 km/h 83 % 0 mm
12:12 -13.6 °C -14.9 °C 34693 hPa ENE 23.3 km/h 41.4 km/h 84 % 0 mm
12:17 -13.5 °C -15.2 °C 34693 hPa North 20.8 km/h 51.8 km/h 81 % 0 mm
12:22 -13.4 °C -14.9 °C 34693 hPa West 12.9 km/h 51.8 km/h 83 % 0 mm
12:27 -13.2 °C -15 °C 34693 hPa NNW 20.8 km/h 51.8 km/h 80 % 0 mm
12:32 -13.2 °C -15.1 °C 34693 hPa NE 10.3 km/h 38.8 km/h 79 % 0 mm
12:42 -13.3 °C -15.4 °C 34693 hPa NE 20.8 km/h 51.8 km/h 77 % 0 mm
12:47 -13.2 °C -15.3 °C 34682.8 hPa NNW 15.6 km/h 44.1 km/h 77 % 0 mm
12:52 -13.2 °C -15.4 °C 34682.8 hPa ENE 25.9 km/h 46.7 km/h 76 % 0 mm
12:57 -13.2 °C -15.5 °C 34682.8 hPa NNW 25.9 km/h 51.8 km/h 75 % 0 mm
13:02 -13 °C -15.4 °C 34682.8 hPa North 28.5 km/h 51.8 km/h 74 % 0 mm
13:07 -13.1 °C -15.4 °C 34682.8 hPa North 23.3 km/h 51.8 km/h 75 % 0 mm
13:12 -13.1 °C -15.4 °C 34682.8 hPa North 15.6 km/h 46.7 km/h 75 % 0 mm
13:17 -13.1 °C -15.4 °C 34682.8 hPa North 33.6 km/h 44.1 km/h 75 % 0 mm
13:22 -13.1 °C -15.4 °C 34682.8 hPa NNE 20.8 km/h 49.2 km/h 75 % 0 mm
13:27 -13.1 °C -15.4 °C 34682.8 hPa NE 10.3 km/h 49.2 km/h 75 % 0 mm
13:32 -12.9 °C -15.4 °C 34682.8 hPa NE 25.9 km/h 49.2 km/h 74 % 0 mm
13:37 -12.9 °C -15.6 °C 34682.8 hPa NNE 28.5 km/h 41.4 km/h 72 % 0 mm
13:42 -12.9 °C -16.2 °C 34682.8 hPa North 20.8 km/h 54.4 km/h 66 % 0 mm
13:47 -12.9 °C -16.2 °C 34682.8 hPa NE 36.2 km/h 64.7 km/h 66 % 0 mm
13:52 -12.9 °C -15.9 °C 34682.8 hPa North 23.3 km/h 64.7 km/h 69 % 0 mm
13:57 -13 °C -15.8 °C 34682.8 hPa ENE 20.8 km/h 64.7 km/h 71 % 0 mm
14:02 -13 °C -15.9 °C 34682.8 hPa NNW 12.9 km/h 57 km/h 70 % 0 mm
14:07 -12.9 °C -15.9 °C 34682.8 hPa NNW 12.9 km/h 41.4 km/h 69 % 0 mm
14:12 -12.8 °C -16.1 °C 34682.8 hPa NNW 25.9 km/h 44.1 km/h 67 % 0 mm
14:17 -12.7 °C -15.8 °C 34682.8 hPa North 15.6 km/h 49.2 km/h 68 % 0 mm
14:22 -12.8 °C -16 °C 34682.8 hPa NE 23.3 km/h 49.2 km/h 67 % 0 mm
14:32 -12.7 °C -16.1 °C 34682.8 hPa NW 25.9 km/h 44.1 km/h 66 % 0 mm
14:37 -12.9 °C -16.4 °C 34682.8 hPa NNW 25.9 km/h 49.2 km/h 65 % 0 mm
14:42 -12.9 °C -16.4 °C 34682.8 hPa NE 25.9 km/h 49.2 km/h 64 % 0 mm
14:47 -12.8 °C -16.6 °C 34682.8 hPa ENE 15.6 km/h 49.2 km/h 63 % 0 mm
14:57 -12.8 °C -16.4 °C 34682.8 hPa NNW 12.9 km/h 51.8 km/h 64 % 0 mm
15:02 -12.7 °C -16.2 °C 34682.8 hPa NE 18.2 km/h 51.8 km/h 65 % 0 mm
15:07 -12.7 °C -16 °C 34682.8 hPa NW 10.3 km/h 51.8 km/h 66 % 0 mm
15:12 -12.6 °C -16.2 °C 34682.8 hPa NNE 41.4 km/h 44.1 km/h 64 % 0 mm
15:22 -12.7 °C -16.1 °C 34682.8 hPa NW 7.7 km/h 44.1 km/h 65 % 0 mm
15:27 -12.6 °C -16.1 °C 34682.8 hPa North 36.2 km/h 44.1 km/h 65 % 0 mm
15:32 -12.6 °C -16.2 °C 34682.8 hPa North 15.6 km/h 41.4 km/h 64 % 0 mm
15:42 -12.7 °C -16.3 °C 34682.8 hPa NNE 12.9 km/h 49.2 km/h 64 % 0 mm
15:47 -12.7 °C -16.2 °C 34682.8 hPa NE 12.9 km/h 49.2 km/h 65 % 0 mm
15:52 -12.8 °C -16.2 °C 34682.8 hPa NNE 18.2 km/h 49.2 km/h 65 % 0 mm
15:57 -12.9 °C -16.2 °C 34682.8 hPa NNW 18.2 km/h 41.4 km/h 66 % 0 mm
16:02 -12.9 °C -16.2 °C 34682.8 hPa NW 12.9 km/h 46.7 km/h 67 % 0 mm
16:12 -13 °C -16.2 °C 34682.8 hPa NW 20.8 km/h 46.7 km/h 67 % 0 mm
16:17 -13 °C -16.2 °C 34682.8 hPa NNE 20.8 km/h 46.7 km/h 67 % 0 mm
16:22 -13 °C -16.1 °C 34682.8 hPa North 10.3 km/h 46.7 km/h 68 % 0 mm
16:27 -13 °C -16.1 °C 34682.8 hPa North 20.8 km/h 38.8 km/h 68 % 0 mm
16:32 -13.1 °C -16.2 °C 34682.8 hPa NNE 12.9 km/h 28.5 km/h 68 % 0 mm
16:37 -13.2 °C -16.2 °C 34682.8 hPa NNE 20.8 km/h 38.8 km/h 69 % 0 mm
16:42 -13.2 °C -16.2 °C 34682.8 hPa North 18.2 km/h 38.8 km/h 69 % 0 mm
16:47 -13.3 °C -16.1 °C 34682.8 hPa ENE 18.2 km/h 38.8 km/h 70 % 0 mm
16:52 -13.3 °C -16.1 °C 34682.8 hPa NE 10.3 km/h 31.1 km/h 70 % 0 mm
16:57 -13.3 °C -16.1 °C 34682.8 hPa NNE 5.1 km/h 28.5 km/h 70 % 0 mm
17:02 -13.4 °C -16.1 °C 34682.8 hPa East 18.2 km/h 25.9 km/h 71 % 0 mm
17:07 -13.4 °C -16.2 °C 34682.8 hPa North 20.8 km/h 25.9 km/h 71 % 0 mm
17:12 -13.5 °C -16.2 °C 34682.8 hPa NNW 7.7 km/h 28.5 km/h 71 % 0 mm
17:17 -13.7 °C -16.3 °C 34693 hPa North 10.3 km/h 31.1 km/h 72 % 0 mm
17:22 -13.7 °C -16.4 °C 34693 hPa NNE 12.9 km/h 36.2 km/h 71 % 0 mm
17:32 -13.8 °C -16.4 °C 34693 hPa NNW 7.7 km/h 33.6 km/h 72 % 0 mm
17:37 -13.8 °C -16.4 °C 34693 hPa NNW 15.6 km/h 33.6 km/h 72 % 0 mm
17:42 -13.8 °C -16.4 °C 34693 hPa NNW 15.6 km/h 31.1 km/h 72 % 0 mm
17:47 -13.8 °C -16.4 °C 34693 hPa NNW 5.1 km/h 31.1 km/h 72 % 0 mm
17:52 -13.9 °C -16.6 °C 34693 hPa NNW 12.9 km/h 25.9 km/h 72 % 0 mm
17:57 -13.9 °C -16.6 °C 34693 hPa NNW 10.3 km/h 28.5 km/h 72 % 0 mm
18:07 -14.1 °C -16.6 °C 34703.1 hPa NNW 10.3 km/h 28.5 km/h 73 % 0 mm
18:12 -14.1 °C -16.6 °C 34703.1 hPa NW 7.7 km/h 31.1 km/h 73 % 0 mm
18:17 -14.1 °C -16.6 °C 34703.1 hPa NE 18.2 km/h 31.1 km/h 73 % 0 mm
18:22 -14.1 °C -16.6 °C 34703.1 hPa NW 15.6 km/h 31.1 km/h 73 % 0 mm
18:32 -14.3 °C -16.7 °C 34703.1 hPa NNW 7.7 km/h 28.5 km/h 74 % 0 mm
18:42 -14.4 °C -16.7 °C 34703.1 hPa NNE 5.1 km/h 23.3 km/h 75 % 0 mm
18:47 -14.4 °C -16.8 °C 34716.7 hPa NNW 12.9 km/h 23.3 km/h 74 % 0 mm
18:52 -14.4 °C -16.7 °C 34716.7 hPa NNW 7.7 km/h 33.6 km/h 75 % 0 mm
18:57 -14.5 °C -16.8 °C 34716.7 hPa NNW 15.6 km/h 33.6 km/h 75 % 0 mm
19:02 -14.5 °C -16.8 °C 34716.7 hPa Calm   23.3 km/h 75 % 0 mm
19:07 -14.5 °C -16.8 °C 34716.7 hPa North 12.9 km/h 23.3 km/h 75 % 0 mm
19:12 -14.6 °C -16.8 °C 34726.8 hPa NE 5.1 km/h 23.3 km/h 75 % 0 mm
19:17 -14.6 °C -16.8 °C 34716.7 hPa NE 5.1 km/h 23.3 km/h 76 % 0 mm
19:22 -14.6 °C -16.8 °C 34726.8 hPa ENE 7.7 km/h 20.8 km/h 76 % 0 mm
19:32 -14.7 °C -16.8 °C 34726.8 hPa NE 7.7 km/h 15.6 km/h 77 % 0 mm
19:37 -14.7 °C -16.8 °C 34726.8 hPa North 5.1 km/h 15.6 km/h 77 % 0 mm
19:42 -14.7 °C -16.8 °C 34726.8 hPa North 10.3 km/h 18.2 km/h 77 % 0 mm
19:47 -14.8 °C -16.7 °C 34740.4 hPa NE 7.7 km/h 18.2 km/h 78 % 0 mm
19:52 -14.9 °C -16.8 °C 34740.4 hPa ENE 7.7 km/h 18.2 km/h 79 % 0 mm
20:02 -15.1 °C -16.9 °C 34726.8 hPa Calm   20.8 km/h 80 % 0 mm
20:07 -15.2 °C -16.9 °C 34726.8 hPa NE 2.6 km/h 20.8 km/h 80 % 0 mm
20:12 -15.2 °C -16.9 °C 34726.8 hPa NNE 5.1 km/h 18.2 km/h 81 % 0 mm
20:17 -15.3 °C -16.9 °C 34726.8 hPa NNW 2.6 km/h 12.9 km/h 81 % 0 mm
20:22 -15.2 °C -16.9 °C 34726.8 hPa North 5.1 km/h 15.6 km/h 81 % 0 mm
20:32 -15.2 °C -16.8 °C 34726.8 hPa NNW 7.7 km/h 23.3 km/h 81 % 0 mm
20:37 -15.1 °C -16.9 °C 34726.8 hPa North 10.3 km/h 23.3 km/h 80 % 0 mm
20:47 -15.3 °C -17 °C 34726.8 hPa North 12.9 km/h 18.2 km/h 81 % 0 mm
20:52 -15.4 °C -17 °C 34726.8 hPa NNW 15.6 km/h 18.2 km/h 82 % 0 mm
20:57 -15.5 °C -17.1 °C 34726.8 hPa NNW 5.1 km/h 18.2 km/h 82 % 0 mm
21:02 -15.5 °C -16.9 °C 34726.8 hPa NNW 10.3 km/h 15.6 km/h 83 % 0 mm
21:12 -15.4 °C -16.8 °C 34726.8 hPa NW 5.1 km/h 18.2 km/h 83 % 0 mm
21:17 -15.3 °C -16.8 °C 34716.7 hPa NNW 5.1 km/h 18.2 km/h 83 % 0 mm
21:22 -15.2 °C -16.8 °C 34716.7 hPa North 18.2 km/h 20.8 km/h 82 % 0 mm
21:27 -15.2 °C -16.8 °C 34726.8 hPa NNW 5.1 km/h 23.3 km/h 81 % 0 mm
21:32 -15.2 °C -16.8 °C 34716.7 hPa NNW 7.7 km/h 23.3 km/h 82 % 0 mm
21:37 -15.2 °C -16.8 °C 34716.7 hPa NNW 10.3 km/h 18.2 km/h 82 % 0 mm
21:42 -15.2 °C -16.8 °C 34716.7 hPa NNW 15.6 km/h 23.3 km/h 82 % 0 mm
21:47 -15.2 °C -16.7 °C 34716.7 hPa North 12.9 km/h 23.3 km/h 82 % 0 mm
21:57 -15.2 °C -16.6 °C 34716.7 hPa NNE 10.3 km/h 20.8 km/h 83 % 0 mm
22:02 -15.1 °C -16.6 °C 34716.7 hPa NNW 7.7 km/h 23.3 km/h 82 % 0 mm
22:07 -15.1 °C -16.8 °C 34716.7 hPa Calm   25.9 km/h 81 % 0 mm
22:12 -15.2 °C -16.8 °C 34716.7 hPa North 12.9 km/h 25.9 km/h 81 % 0 mm
22:17 -15.2 °C -16.7 °C 34716.7 hPa NNW 10.3 km/h 23.3 km/h 82 % 0 mm
22:22 -15.2 °C -16.8 °C 34716.7 hPa NNE 10.3 km/h 20.8 km/h 82 % 0 mm
22:27 -15.3 °C -16.9 °C 34716.7 hPa NNW 5.1 km/h 20.8 km/h 82 % 0 mm
22:37 -15.4 °C -16.8 °C 34703.1 hPa North 10.3 km/h 20.8 km/h 83 % 0 mm
22:42 -15.4 °C -16.9 °C 34703.1 hPa NNE 15.6 km/h 23.3 km/h 82 % 0 mm
22:52 -15.4 °C -16.9 °C 34703.1 hPa North 10.3 km/h 23.3 km/h 83 % 0 mm
22:57 -15.5 °C -16.9 °C 34703.1 hPa NNW 5.1 km/h 25.9 km/h 83 % 0 mm
23:07 -15.6 °C -17.1 °C 34703.1 hPa NNE 12.9 km/h 25.9 km/h 83 % 0 mm
23:12 -15.6 °C -17 °C 34703.1 hPa NNE 20.8 km/h 20.8 km/h 84 % 0 mm
23:17 -15.6 °C -17 °C 34703.1 hPa North 10.3 km/h 23.3 km/h 84 % 0 mm
23:22 -15.6 °C -17 °C 34693 hPa NNW 12.9 km/h 25.9 km/h 84 % 0 mm
23:27 -15.7 °C -17.1 °C 34693 hPa NNW 7.7 km/h 25.9 km/h 84 % 0 mm
23:32 -15.7 °C -17.1 °C 34693 hPa WNW 15.6 km/h 23.3 km/h 84 % 0 mm
23:37 -15.7 °C -17.1 °C 34693 hPa NNE 7.7 km/h 23.3 km/h 84 % 0 mm
23:42 -15.7 °C -17.1 °C 34682.8 hPa NNW 2.6 km/h 23.3 km/h 84 % 0 mm
23:47 -15.8 °C -17.1 °C 34693 hPa NNW 7.7 km/h 18.2 km/h 84 % 0 mm
23:52 -15.9 °C -17.2 °C 34693 hPa NNW 7.7 km/h 18.2 km/h 85 % 0 mm
23:57 -15.9 °C -17.2 °C 34682.8 hPa NNW 5.1 km/h 18.2 km/h 85 % 0 mm
Meteo18
Compliments of Weather Underground - 4 mb

Script developed by  Jim McMurry - jmcmurry@mwt.net Adapted for the template by  Wim van der Kuil - Leuven-Template.eu

You find our weather info also at:

European Weather Network

Weather Underground

Equipment we use:

Weather-station
Davis Vue

Weather-program
Meteobridge

Weather-server
Raspberry PI 2 B+

Provider
1 and 1

Davis Vue

Meteobridge

Raspberry PI 2 B+

1 and 1